Bogota, Colombia
Current Conditions -  °F | °C
As of 6:00 PM on Tuesday 25 Nov 2014 (Local Time) from SKBO Reporting Station
Broken Clouds Broken Clouds  
Wind Chill: 14°   Ceiling: 25000
Heat Index: 14°   Visibility: 6mi
Dew Point:   Wind: 5mph
Humidity: 67%   Direction: 40°NE
Pressure: 30.23"   Gusts: NA
Location:  4.63°N, 74.09°W
Report Text: SKBO 252300Z 04004KT 9999 FEW020 BKN250 14/08 A3023
Loading
Personal Weather Stations






























Interactive Weather Map New forecast layout! Learn more

10-Day Weather Forecast

Advertisements
Track Severe Weather on mobile